Aérodrome :
LOGIN :

S'inscrire | Disclaimer

   EN    FR    IT 

 










Légende :    VFR   VFR Marginal   IFR   IFR Intensif   IFR Très Intensif
Visi : 
Plafond : 
>= 8 km
>= 3000ft
5 à 8 km
1000 à 3000 ft
1500m à 5 km
500 à 1000 ft
800 à 1500m
200 à 500 ft
< 800m
< 200 ft
Symboles :   Orages  Brouillard  Fortes neiges  Fortes précipitations  Vent > 20 kt
SIGMETs :   Divers  Orages  Givrage  Turbulence  Onde Orograph.  Cendres Volcan.






- Altitude de l'aérodrome : 294 ft
- Code IATA : NAP


LIRN - Naples Capodichino

DERNIER METAR :
  • 250720Z 08003KT 6000 -RA SCT020 SCT050 09/08 Q1025 NOSIG

METARs EXPIRÉS :
  • 250650Z VRB01KT 7000 -RA FEW020 SCT050 09/07 Q1025 NOSIG
  • 250620Z VRB02KT 8000 -RA FEW030 SCT050 09/07 Q1024 NOSIG
  • 250550Z VRB02KT 8000 -RA SCT050 09/07 Q1024 NOSIG
  • 250520Z 33003KT 8000 SCT050 07/06 Q1024 NOSIG
  • 250450Z 35003KT 320V020 8000 SCT050 08/06 Q1024 NOSIG

TAF TAF LIRN
Valide du 25 à 06h jusqu'au 26 à 06h UTC


250500Z 2506/2606 VRB05KT 9999 SCT030
BECMG 2508/2510 18012KT
TEMPO 2510/2515 RA



MET'MAP, la Météo Aéronautique d'un coup d'oeil ! - Copyright ORBIFLY Décembre 2007 - Disclaimer

ORBIFLY MET'MAP TEAM :

Programmation & Développement : Alexandra Zaïnal
Sur une idée originale de : Baudouin d'Aumeries
Assistance à la programmation : Marc-Olivier Méhu
Soutien technique & logistique : Manuel Goepfert

Contact : metmap@orbifly.com




SOURCES & CREDITS :

   NOAA